sensor_id;sensor_type;location;lat;lon;timestamp;P1;durP1;ratioP1;P2;durP2;ratioP2
16928;SDS011;8581;47.334;11.190;2023-05-07T00:02:17;2.30;;;2.10;;
16928;SDS011;8581;47.334;11.190;2023-05-07T00:04:48;2.77;;;2.13;;
16928;SDS011;8581;47.334;11.190;2023-05-07T00:07:20;3.00;;;2.00;;
16928;SDS011;8581;47.334;11.190;2023-05-07T00:09:51;2.87;;;2.10;;
16928;SDS011;8581;47.334;11.190;2023-05-07T00:12:25;2.07;;;1.90;;
16928;SDS011;8581;47.334;11.190;2023-05-07T00:14:57;2.03;;;1.93;;
16928;SDS011;8581;47.334;11.190;2023-05-07T00:17:29;3.53;;;2.30;;
16928;SDS011;8581;47.334;11.190;2023-05-07T00:20:00;3.00;;;2.20;;
16928;SDS011;8581;47.334;11.190;2023-05-07T00:22:32;2.50;;;2.30;;
16928;SDS011;8581;47.334;11.190;2023-05-07T00:25:03;3.10;;;2.20;;
16928;SDS011;8581;47.334;11.190;2023-05-07T00:27:36;2.27;;;2.03;;
16928;SDS011;8581;47.334;11.190;2023-05-07T00:30:08;2.37;;;2.23;;
16928;SDS011;8581;47.334;11.190;2023-05-07T00:32:41;2.90;;;2.70;;
16928;SDS011;8581;47.334;11.190;2023-05-07T00:35:12;2.50;;;2.30;;
16928;SDS011;8581;47.334;11.190;2023-05-07T00:37:44;2.67;;;2.47;;
16928;SDS011;8581;47.334;11.190;2023-05-07T00:40:15;3.17;;;2.57;;
16928;SDS011;8581;47.334;11.190;2023-05-07T00:42:47;2.60;;;2.40;;
16928;SDS011;8581;47.334;11.190;2023-05-07T00:45:19;4.33;;;2.70;;
16928;SDS011;8581;47.334;11.190;2023-05-07T00:47:50;2.73;;;2.53;;
16928;SDS011;8581;47.334;11.190;2023-05-07T00:50:22;3.37;;;2.90;;
16928;SDS011;8581;47.334;11.190;2023-05-07T00:52:54;3.63;;;2.80;;
16928;SDS011;8581;47.334;11.190;2023-05-07T00:55:25;2.57;;;2.37;;
16928;SDS011;8581;47.334;11.190;2023-05-07T00:57:57;2.93;;;2.73;;
16928;SDS011;8581;47.334;11.190;2023-05-07T01:00:28;3.27;;;2.93;;
16928;SDS011;8581;47.334;11.190;2023-05-07T01:03:00;3.13;;;2.83;;
16928;SDS011;8581;47.334;11.190;2023-05-07T01:05:32;2.73;;;2.53;;
16928;SDS011;8581;47.334;11.190;2023-05-07T01:08:03;2.73;;;2.40;;
16928;SDS011;8581;47.334;11.190;2023-05-07T01:10:35;2.80;;;2.60;;
16928;SDS011;8581;47.334;11.190;2023-05-07T01:13:07;2.53;;;2.37;;
16928;SDS011;8581;47.334;11.190;2023-05-07T01:15:38;2.67;;;2.47;;
16928;SDS011;8581;47.334;11.190;2023-05-07T01:18:10;2.70;;;2.50;;
16928;SDS011;8581;47.334;11.190;2023-05-07T01:20:41;2.90;;;2.70;;
16928;SDS011;8581;47.334;11.190;2023-05-07T01:23:13;4.03;;;2.53;;
16928;SDS011;8581;47.334;11.190;2023-05-07T01:28:23;2.67;;;2.47;;
16928;SDS011;8581;47.334;11.190;2023-05-07T01:30:56;2.47;;;2.27;;
16928;SDS011;8581;47.334;11.190;2023-05-07T01:33:26;2.20;;;2.03;;
16928;SDS011;8581;47.334;11.190;2023-05-07T01:35:58;3.17;;;2.37;;
16928;SDS011;8581;47.334;11.190;2023-05-07T01:38:30;2.60;;;2.50;;
16928;SDS011;8581;47.334;11.190;2023-05-07T01:41:01;2.40;;;2.20;;
16928;SDS011;8581;47.334;11.190;2023-05-07T01:43:33;2.30;;;2.10;;
16928;SDS011;8581;47.334;11.190;2023-05-07T01:46:04;2.27;;;2.17;;
16928;SDS011;8581;47.334;11.190;2023-05-07T01:48:36;3.10;;;2.43;;
16928;SDS011;8581;47.334;11.190;2023-05-07T01:51:08;2.40;;;2.20;;
16928;SDS011;8581;47.334;11.190;2023-05-07T01:53:40;2.37;;;2.17;;
16928;SDS011;8581;47.334;11.190;2023-05-07T01:56:11;3.63;;;2.60;;
16928;SDS011;8581;47.334;11.190;2023-05-07T01:58:44;2.97;;;2.60;;
16928;SDS011;8581;47.334;11.190;2023-05-07T02:01:15;2.87;;;2.67;;
16928;SDS011;8581;47.334;11.190;2023-05-07T02:03:46;2.97;;;2.77;;
16928;SDS011;8581;47.334;11.190;2023-05-07T02:06:18;2.93;;;2.73;;
16928;SDS011;8581;47.334;11.190;2023-05-07T02:08:49;6.43;;;3.07;;
16928;SDS011;8581;47.334;11.190;2023-05-07T02:11:21;4.23;;;2.90;;
16928;SDS011;8581;47.334;11.190;2023-05-07T02:13:53;3.37;;;2.93;;
16928;SDS011;8581;47.334;11.190;2023-05-07T02:16:24;3.20;;;2.90;;
16928;SDS011;8581;47.334;11.190;2023-05-07T02:18:56;4.17;;;2.77;;
16928;SDS011;8581;47.334;11.190;2023-05-07T02:21:27;3.43;;;3.13;;
16928;SDS011;8581;47.334;11.190;2023-05-07T02:23:59;2.97;;;2.73;;
16928;SDS011;8581;47.334;11.190;2023-05-07T02:26:31;2.90;;;2.70;;
16928;SDS011;8581;47.334;11.190;2023-05-07T02:29:02;2.87;;;2.67;;
16928;SDS011;8581;47.334;11.190;2023-05-07T02:31:34;4.23;;;3.43;;
16928;SDS011;8581;47.334;11.190;2023-05-07T02:34:05;5.57;;;3.40;;
16928;SDS011;8581;47.334;11.190;2023-05-07T02:36:37;39.90;;;29.13;;
16928;SDS011;8581;47.334;11.190;2023-05-07T02:39:09;44.60;;;34.40;;
16928;SDS011;8581;47.334;11.190;2023-05-07T02:41:40;42.50;;;32.63;;
16928;SDS011;8581;47.334;11.190;2023-05-07T02:44:12;18.57;;;14.53;;
16928;SDS011;8581;47.334;11.190;2023-05-07T02:46:43;21.20;;;16.73;;
16928;SDS011;8581;47.334;11.190;2023-05-07T02:49:15;17.37;;;14.83;;
16928;SDS011;8581;47.334;11.190;2023-05-07T02:51:46;17.17;;;13.17;;
16928;SDS011;8581;47.334;11.190;2023-05-07T02:54:18;8.13;;;7.33;;
16928;SDS011;8581;47.334;11.190;2023-05-07T02:56:50;6.57;;;5.97;;
16928;SDS011;8581;47.334;11.190;2023-05-07T02:59:21;7.07;;;6.37;;
16928;SDS011;8581;47.334;11.190;2023-05-07T03:01:53;7.20;;;6.37;;
16928;SDS011;8581;47.334;11.190;2023-05-07T03:04:24;5.70;;;5.10;;
16928;SDS011;8581;47.334;11.190;2023-05-07T03:06:56;5.70;;;4.80;;
16928;SDS011;8581;47.334;11.190;2023-05-07T03:09:28;5.73;;;4.97;;
16928;SDS011;8581;47.334;11.190;2023-05-07T03:11:59;4.97;;;4.47;;
16928;SDS011;8581;47.334;11.190;2023-05-07T03:14:31;4.90;;;4.50;;
16928;SDS011;8581;47.334;11.190;2023-05-07T03:17:02;6.07;;;4.97;;
16928;SDS011;8581;47.334;11.190;2023-05-07T03:19:34;6.83;;;4.63;;
16928;SDS011;8581;47.334;11.190;2023-05-07T03:22:06;5.33;;;4.93;;
16928;SDS011;8581;47.334;11.190;2023-05-07T03:24:37;7.63;;;4.87;;
16928;SDS011;8581;47.334;11.190;2023-05-07T03:27:09;5.13;;;4.67;;
16928;SDS011;8581;47.334;11.190;2023-05-07T03:29:40;4.90;;;4.50;;
16928;SDS011;8581;47.334;11.190;2023-05-07T03:32:12;6.23;;;5.63;;
16928;SDS011;8581;47.334;11.190;2023-05-07T03:34:44;6.00;;;5.00;;
16928;SDS011;8581;47.334;11.190;2023-05-07T03:37:15;4.53;;;4.20;;
16928;SDS011;8581;47.334;11.190;2023-05-07T03:39:47;4.80;;;4.37;;
16928;SDS011;8581;47.334;11.190;2023-05-07T03:42:18;4.40;;;3.87;;
16928;SDS011;8581;47.334;11.190;2023-05-07T03:44:50;4.17;;;3.77;;
16928;SDS011;8581;47.334;11.190;2023-05-07T03:47:22;3.80;;;3.50;;
16928;SDS011;8581;47.334;11.190;2023-05-07T03:49:53;4.57;;;4.13;;
16928;SDS011;8581;47.334;11.190;2023-05-07T03:52:25;3.77;;;3.47;;
16928;SDS011;8581;47.334;11.190;2023-05-07T03:54:56;3.87;;;3.57;;
16928;SDS011;8581;47.334;11.190;2023-05-07T03:57:28;3.97;;;3.67;;
16928;SDS011;8581;47.334;11.190;2023-05-07T04:00:00;4.23;;;3.93;;
16928;SDS011;8581;47.334;11.190;2023-05-07T04:02:32;4.20;;;3.87;;
16928;SDS011;8581;47.334;11.190;2023-05-07T04:05:03;4.10;;;3.80;;
16928;SDS011;8581;47.334;11.190;2023-05-07T04:07:35;4.20;;;3.37;;
16928;SDS011;8581;47.334;11.190;2023-05-07T04:10:07;4.03;;;3.67;;
16928;SDS011;8581;47.334;11.190;2023-05-07T04:12:39;4.03;;;3.73;;
16928;SDS011;8581;47.334;11.190;2023-05-07T04:15:11;5.37;;;4.03;;
16928;SDS011;8581;47.334;11.190;2023-05-07T04:17:42;4.27;;;3.97;;
16928;SDS011;8581;47.334;11.190;2023-05-07T04:20:15;4.53;;;4.03;;
16928;SDS011;8581;47.334;11.190;2023-05-07T04:22:45;4.70;;;4.20;;
16928;SDS011;8581;47.334;11.190;2023-05-07T04:25:17;4.07;;;3.77;;
16928;SDS011;8581;47.334;11.190;2023-05-07T04:27:49;4.40;;;4.00;;
16928;SDS011;8581;47.334;11.190;2023-05-07T04:30:20;4.13;;;3.73;;
16928;SDS011;8581;47.334;11.190;2023-05-07T04:32:52;4.07;;;3.53;;
16928;SDS011;8581;47.334;11.190;2023-05-07T04:35:23;3.80;;;3.47;;
16928;SDS011;8581;47.334;11.190;2023-05-07T04:37:55;5.30;;;3.90;;
16928;SDS011;8581;47.334;11.190;2023-05-07T04:40:27;3.97;;;3.53;;
16928;SDS011;8581;47.334;11.190;2023-05-07T04:42:58;3.50;;;3.10;;
16928;SDS011;8581;47.334;11.190;2023-05-07T04:45:30;3.50;;;3.20;;
16928;SDS011;8581;47.334;11.190;2023-05-07T04:48:01;3.23;;;3.03;;
16928;SDS011;8581;47.334;11.190;2023-05-07T04:50:33;3.40;;;3.10;;
16928;SDS011;8581;47.334;11.190;2023-05-07T04:53:05;3.27;;;2.97;;
16928;SDS011;8581;47.334;11.190;2023-05-07T04:55:36;3.83;;;3.00;;
16928;SDS011;8581;47.334;11.190;2023-05-07T04:58:08;3.17;;;2.87;;
16928;SDS011;8581;47.334;11.190;2023-05-07T05:00:40;3.63;;;2.80;;
16928;SDS011;8581;47.334;11.190;2023-05-07T05:03:11;2.50;;;2.40;;
16928;SDS011;8581;47.334;11.190;2023-05-07T05:05:43;3.03;;;2.80;;
16928;SDS011;8581;47.334;11.190;2023-05-07T05:08:14;3.00;;;2.80;;
16928;SDS011;8581;47.334;11.190;2023-05-07T05:10:46;2.73;;;2.50;;
16928;SDS011;8581;47.334;11.190;2023-05-07T05:13:18;2.70;;;2.50;;
16928;SDS011;8581;47.334;11.190;2023-05-07T05:15:49;2.63;;;2.20;;
16928;SDS011;8581;47.334;11.190;2023-05-07T05:18:22;2.60;;;2.10;;
16928;SDS011;8581;47.334;11.190;2023-05-07T05:20:52;2.40;;;2.20;;
16928;SDS011;8581;47.334;11.190;2023-05-07T05:23:24;2.40;;;2.20;;
16928;SDS011;8581;47.334;11.190;2023-05-07T05:25:56;2.50;;;2.30;;
16928;SDS011;8581;47.334;11.190;2023-05-07T05:28:27;2.67;;;2.47;;
16928;SDS011;8581;47.334;11.190;2023-05-07T05:30:59;2.40;;;2.20;;
16928;SDS011;8581;47.334;11.190;2023-05-07T05:33:31;3.83;;;2.20;;
16928;SDS011;8581;47.334;11.190;2023-05-07T05:36:02;1.97;;;1.80;;
16928;SDS011;8581;47.334;11.190;2023-05-07T05:38:35;2.17;;;1.53;;
16928;SDS011;8581;47.334;11.190;2023-05-07T05:41:06;1.80;;;1.23;;
16928;SDS011;8581;47.334;11.190;2023-05-07T05:43:38;1.30;;;1.20;;
16928;SDS011;8581;47.334;11.190;2023-05-07T05:46:10;1.80;;;1.10;;
16928;SDS011;8581;47.334;11.190;2023-05-07T05:48:41;1.30;;;1.20;;
16928;SDS011;8581;47.334;11.190;2023-05-07T05:51:13;2.00;;;0.80;;
16928;SDS011;8581;47.334;11.190;2023-05-07T05:53:44;0.67;;;0.67;;
16928;SDS011;8581;47.334;11.190;2023-05-07T05:56:16;0.90;;;0.60;;
16928;SDS011;8581;47.334;11.190;2023-05-07T05:58:48;0.60;;;0.60;;
16928;SDS011;8581;47.334;11.190;2023-05-07T06:01:19;0.70;;;0.70;;
16928;SDS011;8581;47.334;11.190;2023-05-07T06:03:51;0.70;;;0.70;;
16928;SDS011;8581;47.334;11.190;2023-05-07T06:06:22;0.70;;;0.57;;
16928;SDS011;8581;47.334;11.190;2023-05-07T06:08:54;0.90;;;0.70;;
16928;SDS011;8581;47.334;11.190;2023-05-07T06:11:26;0.63;;;0.63;;
16928;SDS011;8581;47.334;11.190;2023-05-07T06:13:57;1.13;;;0.70;;
16928;SDS011;8581;47.334;11.190;2023-05-07T06:16:29;0.70;;;0.63;;
16928;SDS011;8581;47.334;11.190;2023-05-07T06:19:01;0.80;;;0.60;;
16928;SDS011;8581;47.334;11.190;2023-05-07T06:21:32;0.80;;;0.60;;
16928;SDS011;8581;47.334;11.190;2023-05-07T06:24:04;0.47;;;0.47;;
16928;SDS011;8581;47.334;11.190;2023-05-07T06:26:36;0.60;;;0.60;;
16928;SDS011;8581;47.334;11.190;2023-05-07T06:29:08;0.70;;;0.70;;
16928;SDS011;8581;47.334;11.190;2023-05-07T06:31:39;2.00;;;0.60;;
16928;SDS011;8581;47.334;11.190;2023-05-07T06:34:11;1.37;;;0.80;;
16928;SDS011;8581;47.334;11.190;2023-05-07T06:36:43;0.77;;;0.60;;
16928;SDS011;8581;47.334;11.190;2023-05-07T06:39:15;1.00;;;0.70;;
16928;SDS011;8581;47.334;11.190;2023-05-07T06:41:46;0.77;;;0.60;;
16928;SDS011;8581;47.334;11.190;2023-05-07T06:44:18;0.70;;;0.70;;
16928;SDS011;8581;47.334;11.190;2023-05-07T06:46:50;0.50;;;0.50;;
16928;SDS011;8581;47.334;11.190;2023-05-07T06:49:21;0.70;;;0.70;;
16928;SDS011;8581;47.334;11.190;2023-05-07T06:51:53;0.60;;;0.60;;
16928;SDS011;8581;47.334;11.190;2023-05-07T06:54:24;2.97;;;0.83;;
16928;SDS011;8581;47.334;11.190;2023-05-07T06:56:56;2.67;;;0.60;;
16928;SDS011;8581;47.334;11.190;2023-05-07T06:59:28;0.60;;;0.60;;
16928;SDS011;8581;47.334;11.190;2023-05-07T07:01:59;2.37;;;0.77;;
16928;SDS011;8581;47.334;11.190;2023-05-07T07:04:31;0.60;;;0.60;;
16928;SDS011;8581;47.334;11.190;2023-05-07T07:07:02;0.90;;;0.73;;
16928;SDS011;8581;47.334;11.190;2023-05-07T07:09:34;3.40;;;0.73;;
16928;SDS011;8581;47.334;11.190;2023-05-07T07:12:06;0.50;;;0.50;;
16928;SDS011;8581;47.334;11.190;2023-05-07T07:14:37;0.70;;;0.60;;
16928;SDS011;8581;47.334;11.190;2023-05-07T07:17:09;1.83;;;0.57;;
16928;SDS011;8581;47.334;11.190;2023-05-07T07:19:40;1.33;;;0.60;;
16928;SDS011;8581;47.334;11.190;2023-05-07T07:22:12;1.53;;;0.60;;
16928;SDS011;8581;47.334;11.190;2023-05-07T07:24:44;0.60;;;0.60;;
16928;SDS011;8581;47.334;11.190;2023-05-07T07:27:15;0.90;;;0.70;;
16928;SDS011;8581;47.334;11.190;2023-05-07T07:29:47;2.23;;;0.83;;
16928;SDS011;8581;47.334;11.190;2023-05-07T07:32:18;3.97;;;0.80;;
16928;SDS011;8581;47.334;11.190;2023-05-07T07:34:50;1.43;;;1.00;;
16928;SDS011;8581;47.334;11.190;2023-05-07T07:37:21;0.97;;;0.87;;
16928;SDS011;8581;47.334;11.190;2023-05-07T07:39:53;0.60;;;0.60;;
16928;SDS011;8581;47.334;11.190;2023-05-07T07:42:25;0.60;;;0.60;;
16928;SDS011;8581;47.334;11.190;2023-05-07T07:44:56;2.67;;;1.50;;
16928;SDS011;8581;47.334;11.190;2023-05-07T07:47:28;2.23;;;1.00;;
16928;SDS011;8581;47.334;11.190;2023-05-07T07:50:00;0.97;;;0.70;;
16928;SDS011;8581;47.334;11.190;2023-05-07T07:52:31;1.20;;;0.70;;
16928;SDS011;8581;47.334;11.190;2023-05-07T07:55:03;0.70;;;0.40;;
16928;SDS011;8581;47.334;11.190;2023-05-07T07:57:38;0.80;;;0.63;;
16928;SDS011;8581;47.334;11.190;2023-05-07T08:00:12;0.50;;;0.50;;
16928;SDS011;8581;47.334;11.190;2023-05-07T08:02:44;0.60;;;0.60;;
16928;SDS011;8581;47.334;11.190;2023-05-07T08:05:16;1.23;;;0.60;;
16928;SDS011;8581;47.334;11.190;2023-05-07T08:07:48;0.80;;;0.80;;
16928;SDS011;8581;47.334;11.190;2023-05-07T08:10:22;0.50;;;0.50;;
16928;SDS011;8581;47.334;11.190;2023-05-07T08:12:53;0.63;;;0.57;;
16928;SDS011;8581;47.334;11.190;2023-05-07T08:15:25;0.63;;;0.63;;
16928;SDS011;8581;47.334;11.190;2023-05-07T08:17:59;1.63;;;1.40;;
16928;SDS011;8581;47.334;11.190;2023-05-07T08:20:30;2.10;;;0.90;;
16928;SDS011;8581;47.334;11.190;2023-05-07T08:23:02;0.50;;;0.50;;
16928;SDS011;8581;47.334;11.190;2023-05-07T08:25:33;0.70;;;0.70;;
16928;SDS011;8581;47.334;11.190;2023-05-07T08:28:05;0.70;;;0.70;;
16928;SDS011;8581;47.334;11.190;2023-05-07T08:30:37;0.75;;;0.70;;
16928;SDS011;8581;47.334;11.190;2023-05-07T08:33:08;2.20;;;0.87;;
16928;SDS011;8581;47.334;11.190;2023-05-07T08:35:40;1.03;;;0.87;;
16928;SDS011;8581;47.334;11.190;2023-05-07T08:38:11;0.95;;;0.80;;
16928;SDS011;8581;47.334;11.190;2023-05-07T08:40:43;0.95;;;0.65;;
16928;SDS011;8581;47.334;11.190;2023-05-07T08:43:15;1.02;;;0.60;;
16928;SDS011;8581;47.334;11.190;2023-05-07T08:45:46;0.60;;;0.60;;
16928;SDS011;8581;47.334;11.190;2023-05-07T08:48:18;0.60;;;0.60;;
16928;SDS011;8581;47.334;11.190;2023-05-07T08:50:49;0.62;;;0.62;;
16928;SDS011;8581;47.334;11.190;2023-05-07T08:53:22;0.90;;;0.70;;
16928;SDS011;8581;47.334;11.190;2023-05-07T08:55:54;1.52;;;0.62;;
16928;SDS011;8581;47.334;11.190;2023-05-07T08:58:25;0.80;;;0.80;;
16928;SDS011;8581;47.334;11.190;2023-05-07T09:00:57;0.88;;;0.70;;
16928;SDS011;8581;47.334;11.190;2023-05-07T09:03:29;1.20;;;0.85;;
16928;SDS011;8581;47.334;11.190;2023-05-07T09:06:00;0.80;;;0.60;;
16928;SDS011;8581;47.334;11.190;2023-05-07T09:08:32;0.75;;;0.70;;
16928;SDS011;8581;47.334;11.190;2023-05-07T09:11:03;0.75;;;0.70;;
16928;SDS011;8581;47.334;11.190;2023-05-07T09:13:35;0.72;;;0.60;;
16928;SDS011;8581;47.334;11.190;2023-05-07T09:16:10;0.60;;;0.60;;
16928;SDS011;8581;47.334;11.190;2023-05-07T09:18:42;0.65;;;0.65;;
16928;SDS011;8581;47.334;11.190;2023-05-07T09:21:14;1.12;;;0.70;;
16928;SDS011;8581;47.334;11.190;2023-05-07T09:23:53;1.20;;;0.70;;
16928;SDS011;8581;47.334;11.190;2023-05-07T09:26:25;1.25;;;0.50;;
16928;SDS011;8581;47.334;11.190;2023-05-07T09:28:57;1.20;;;0.80;;
16928;SDS011;8581;47.334;11.190;2023-05-07T09:31:28;0.75;;;0.70;;
16928;SDS011;8581;47.334;11.190;2023-05-07T09:34:00;0.60;;;0.60;;
16928;SDS011;8581;47.334;11.190;2023-05-07T09:36:32;0.60;;;0.60;;
16928;SDS011;8581;47.334;11.190;2023-05-07T09:39:03;0.85;;;0.65;;
16928;SDS011;8581;47.334;11.190;2023-05-07T09:41:43;1.77;;;0.50;;
16928;SDS011;8581;47.334;11.190;2023-05-07T09:44:06;0.90;;;0.70;;
16928;SDS011;8581;47.334;11.190;2023-05-07T09:46:38;1.32;;;0.70;;
16928;SDS011;8581;47.334;11.190;2023-05-07T09:49:16;0.50;;;0.47;;
16928;SDS011;8581;47.334;11.190;2023-05-07T09:51:49;0.98;;;0.82;;
16928;SDS011;8581;47.334;11.190;2023-05-07T09:54:23;1.05;;;0.90;;
16928;SDS011;8581;47.334;11.190;2023-05-07T09:56:55;0.60;;;0.60;;
16928;SDS011;8581;47.334;11.190;2023-05-07T09:59:26;0.60;;;0.60;;
16928;SDS011;8581;47.334;11.190;2023-05-07T10:01:59;0.80;;;0.62;;
16928;SDS011;8581;47.334;11.190;2023-05-07T10:04:30;1.37;;;0.70;;
16928;SDS011;8581;47.334;11.190;2023-05-07T10:07:01;0.82;;;0.60;;
16928;SDS011;8581;47.334;11.190;2023-05-07T10:09:33;1.90;;;0.85;;
16928;SDS011;8581;47.334;11.190;2023-05-07T10:12:06;0.65;;;0.50;;
16928;SDS011;8581;47.334;11.190;2023-05-07T10:14:37;0.50;;;0.50;;
16928;SDS011;8581;47.334;11.190;2023-05-07T10:17:09;0.57;;;0.55;;
16928;SDS011;8581;47.334;11.190;2023-05-07T10:19:42;1.10;;;0.70;;
16928;SDS011;8581;47.334;11.190;2023-05-07T10:22:13;1.27;;;0.70;;
16928;SDS011;8581;47.334;11.190;2023-05-07T10:24:45;1.42;;;0.60;;
16928;SDS011;8581;47.334;11.190;2023-05-07T10:27:17;1.92;;;0.60;;
16928;SDS011;8581;47.334;11.190;2023-05-07T10:32:35;0.50;;;0.50;;
16928;SDS011;8581;47.334;11.190;2023-05-07T10:35:04;1.80;;;0.60;;
16928;SDS011;8581;47.334;11.190;2023-05-07T10:37:36;0.82;;;0.72;;
16928;SDS011;8581;47.334;11.190;2023-05-07T10:40:08;3.35;;;0.70;;
16928;SDS011;8581;47.334;11.190;2023-05-07T10:45:27;0.70;;;0.70;;
16928;SDS011;8581;47.334;11.190;2023-05-07T10:48:08;0.68;;;0.68;;
16928;SDS011;8581;47.334;11.190;2023-05-07T10:50:40;1.15;;;0.60;;
16928;SDS011;8581;47.334;11.190;2023-05-07T10:58:38;0.60;;;0.60;;
16928;SDS011;8581;47.334;11.190;2023-05-07T11:01:10;2.42;;;0.72;;
16928;SDS011;8581;47.334;11.190;2023-05-07T11:04:16;0.60;;;0.60;;
16928;SDS011;8581;47.334;11.190;2023-05-07T11:06:37;2.55;;;0.70;;
16928;SDS011;8581;47.334;11.190;2023-05-07T11:09:09;1.77;;;0.88;;
16928;SDS011;8581;47.334;11.190;2023-05-07T11:11:44;0.60;;;0.60;;
16928;SDS011;8581;47.334;11.190;2023-05-07T11:17:02;0.75;;;0.60;;
16928;SDS011;8581;47.334;11.190;2023-05-07T11:20:05;0.70;;;0.60;;
16928;SDS011;8581;47.334;11.190;2023-05-07T11:25:14;1.15;;;0.60;;
16928;SDS011;8581;47.334;11.190;2023-05-07T11:27:43;0.60;;;0.60;;
16928;SDS011;8581;47.334;11.190;2023-05-07T11:30:17;0.80;;;0.80;;
16928;SDS011;8581;47.334;11.190;2023-05-07T11:32:48;1.75;;;0.80;;
16928;SDS011;8581;47.334;11.190;2023-05-07T11:35:20;1.98;;;0.80;;
16928;SDS011;8581;47.334;11.190;2023-05-07T11:37:57;0.98;;;0.68;;
16928;SDS011;8581;47.334;11.190;2023-05-07T11:40:23;0.82;;;0.60;;
16928;SDS011;8581;47.334;11.190;2023-05-07T11:42:54;0.55;;;0.55;;
16928;SDS011;8581;47.334;11.190;2023-05-07T11:45:26;1.55;;;0.62;;
16928;SDS011;8581;47.334;11.190;2023-05-07T11:47:58;1.82;;;0.70;;
16928;SDS011;8581;47.334;11.190;2023-05-07T11:50:29;0.95;;;0.53;;
16928;SDS011;8581;47.334;11.190;2023-05-07T11:53:07;0.70;;;0.70;;
16928;SDS011;8581;47.334;11.190;2023-05-07T11:55:33;0.75;;;0.60;;
16928;SDS011;8581;47.334;11.190;2023-05-07T11:58:04;1.32;;;0.60;;
16928;SDS011;8581;47.334;11.190;2023-05-07T12:00:36;0.65;;;0.53;;
16928;SDS011;8581;47.334;11.190;2023-05-07T12:03:08;1.10;;;0.70;;
16928;SDS011;8581;47.334;11.190;2023-05-07T12:05:39;0.82;;;0.82;;
16928;SDS011;8581;47.334;11.190;2023-05-07T12:08:14;1.55;;;0.62;;
16928;SDS011;8581;47.334;11.190;2023-05-07T12:10:47;0.93;;;0.60;;
16928;SDS011;8581;47.334;11.190;2023-05-07T12:13:19;1.00;;;0.65;;
16928;SDS011;8581;47.334;11.190;2023-05-07T12:15:51;0.98;;;0.60;;
16928;SDS011;8581;47.334;11.190;2023-05-07T12:18:23;0.62;;;0.60;;
16928;SDS011;8581;47.334;11.190;2023-05-07T12:20:55;0.55;;;0.55;;
16928;SDS011;8581;47.334;11.190;2023-05-07T12:23:26;1.87;;;0.90;;
16928;SDS011;8581;47.334;11.190;2023-05-07T12:25:58;0.98;;;0.70;;
16928;SDS011;8581;47.334;11.190;2023-05-07T12:28:29;1.70;;;1.00;;
16928;SDS011;8581;47.334;11.190;2023-05-07T12:31:01;1.37;;;0.70;;
16928;SDS011;8581;47.334;11.190;2023-05-07T12:33:33;1.37;;;0.80;;
16928;SDS011;8581;47.334;11.190;2023-05-07T12:36:06;1.47;;;0.90;;
16928;SDS011;8581;47.334;11.190;2023-05-07T12:38:38;1.52;;;0.90;;
16928;SDS011;8581;47.334;11.190;2023-05-07T12:41:10;1.82;;;0.75;;
16928;SDS011;8581;47.334;11.190;2023-05-07T12:43:44;1.37;;;0.60;;
16928;SDS011;8581;47.334;11.190;2023-05-07T12:46:16;1.52;;;0.78;;
16928;SDS011;8581;47.334;11.190;2023-05-07T12:48:47;1.00;;;0.90;;
16928;SDS011;8581;47.334;11.190;2023-05-07T12:51:19;1.17;;;0.70;;
16928;SDS011;8581;47.334;11.190;2023-05-07T12:53:50;1.17;;;0.60;;
16928;SDS011;8581;47.334;11.190;2023-05-07T12:56:22;1.62;;;0.90;;
16928;SDS011;8581;47.334;11.190;2023-05-07T12:58:56;0.68;;;0.65;;
16928;SDS011;8581;47.334;11.190;2023-05-07T13:01:28;1.02;;;0.65;;
16928;SDS011;8581;47.334;11.190;2023-05-07T13:04:00;0.60;;;0.60;;
16928;SDS011;8581;47.334;11.190;2023-05-07T13:06:31;1.02;;;0.88;;
16928;SDS011;8581;47.334;11.190;2023-05-07T13:09:03;0.90;;;0.80;;
16928;SDS011;8581;47.334;11.190;2023-05-07T13:11:35;1.45;;;0.60;;
16928;SDS011;8581;47.334;11.190;2023-05-07T13:14:06;0.50;;;0.50;;
16928;SDS011;8581;47.334;11.190;2023-05-07T13:16:38;0.72;;;0.65;;
16928;SDS011;8581;47.334;11.190;2023-05-07T13:19:09;1.10;;;0.70;;
16928;SDS011;8581;47.334;11.190;2023-05-07T13:21:41;0.55;;;0.55;;
16928;SDS011;8581;47.334;11.190;2023-05-07T13:24:13;0.70;;;0.60;;
16928;SDS011;8581;47.334;11.190;2023-05-07T13:26:45;0.70;;;0.57;;
16928;SDS011;8581;47.334;11.190;2023-05-07T13:29:16;0.80;;;0.60;;
16928;SDS011;8581;47.334;11.190;2023-05-07T13:31:48;1.20;;;0.68;;
16928;SDS011;8581;47.334;11.190;2023-05-07T13:34:19;0.70;;;0.70;;
16928;SDS011;8581;47.334;11.190;2023-05-07T13:36:52;1.10;;;0.65;;
16928;SDS011;8581;47.334;11.190;2023-05-07T13:39:23;0.50;;;0.50;;
16928;SDS011;8581;47.334;11.190;2023-05-07T13:41:54;0.60;;;0.60;;
16928;SDS011;8581;47.334;11.190;2023-05-07T13:44:26;0.95;;;0.75;;
16928;SDS011;8581;47.334;11.190;2023-05-07T13:46:58;1.75;;;0.65;;
16928;SDS011;8581;47.334;11.190;2023-05-07T13:49:29;1.47;;;0.72;;
16928;SDS011;8581;47.334;11.190;2023-05-07T13:52:02;0.60;;;0.50;;
16928;SDS011;8581;47.334;11.190;2023-05-07T13:54:33;1.98;;;0.70;;
16928;SDS011;8581;47.334;11.190;2023-05-07T13:57:05;1.75;;;0.70;;
16928;SDS011;8581;47.334;11.190;2023-05-07T13:59:37;0.78;;;0.70;;
16928;SDS011;8581;47.334;11.190;2023-05-07T14:02:08;0.62;;;0.62;;
16928;SDS011;8581;47.334;11.190;2023-05-07T14:04:40;0.85;;;0.78;;
16928;SDS011;8581;47.334;11.190;2023-05-07T14:07:12;0.80;;;0.80;;
16928;SDS011;8581;47.334;11.190;2023-05-07T14:09:44;0.95;;;0.70;;
16928;SDS011;8581;47.334;11.190;2023-05-07T14:12:15;1.00;;;0.70;;
16928;SDS011;8581;47.334;11.190;2023-05-07T14:14:47;0.62;;;0.62;;
16928;SDS011;8581;47.334;11.190;2023-05-07T14:17:19;5.17;;;0.80;;
16928;SDS011;8581;47.334;11.190;2023-05-07T14:19:50;0.98;;;0.62;;
16928;SDS011;8581;47.334;11.190;2023-05-07T14:22:25;2.05;;;0.70;;
16928;SDS011;8581;47.334;11.190;2023-05-07T14:24:56;1.12;;;0.70;;
16928;SDS011;8581;47.334;11.190;2023-05-07T14:27:28;0.85;;;0.70;;
16928;SDS011;8581;47.334;11.190;2023-05-07T14:30:00;1.10;;;0.70;;
16928;SDS011;8581;47.334;11.190;2023-05-07T14:32:32;1.17;;;0.60;;
16928;SDS011;8581;47.334;11.190;2023-05-07T14:35:03;1.52;;;0.60;;
16928;SDS011;8581;47.334;11.190;2023-05-07T14:37:35;0.60;;;0.55;;
16928;SDS011;8581;47.334;11.190;2023-05-07T14:40:07;2.00;;;0.80;;
16928;SDS011;8581;47.334;11.190;2023-05-07T14:42:40;0.60;;;0.60;;
16928;SDS011;8581;47.334;11.190;2023-05-07T14:45:11;1.65;;;0.90;;
16928;SDS011;8581;47.334;11.190;2023-05-07T14:47:43;1.02;;;0.78;;
16928;SDS011;8581;47.334;11.190;2023-05-07T14:50:14;1.37;;;0.90;;
16928;SDS011;8581;47.334;11.190;2023-05-07T14:52:46;1.85;;;0.98;;
16928;SDS011;8581;47.334;11.190;2023-05-07T14:55:18;3.33;;;0.93;;
16928;SDS011;8581;47.334;11.190;2023-05-07T14:57:49;0.82;;;0.70;;
16928;SDS011;8581;47.334;11.190;2023-05-07T15:00:21;2.45;;;1.12;;
16928;SDS011;8581;47.334;11.190;2023-05-07T15:02:53;2.12;;;0.90;;
16928;SDS011;8581;47.334;11.190;2023-05-07T15:05:25;1.25;;;0.90;;
16928;SDS011;8581;47.334;11.190;2023-05-07T15:07:56;0.90;;;0.90;;
16928;SDS011;8581;47.334;11.190;2023-05-07T15:10:28;1.20;;;1.00;;
16928;SDS011;8581;47.334;11.190;2023-05-07T15:12:59;1.20;;;0.93;;
16928;SDS011;8581;47.334;11.190;2023-05-07T15:15:31;0.93;;;0.80;;
16928;SDS011;8581;47.334;11.190;2023-05-07T15:18:03;1.65;;;1.10;;
16928;SDS011;8581;47.334;11.190;2023-05-07T15:20:35;1.17;;;1.00;;
16928;SDS011;8581;47.334;11.190;2023-05-07T15:23:06;1.65;;;0.80;;
16928;SDS011;8581;47.334;11.190;2023-05-07T15:25:38;1.42;;;0.88;;
16928;SDS011;8581;47.334;11.190;2023-05-07T15:28:09;1.72;;;0.98;;
16928;SDS011;8581;47.334;11.190;2023-05-07T15:30:41;1.40;;;0.70;;
16928;SDS011;8581;47.334;11.190;2023-05-07T15:33:12;1.20;;;1.00;;
16928;SDS011;8581;47.334;11.190;2023-05-07T15:35:44;0.62;;;0.62;;